Lavalette, West Virginia
Current Conditions -  °F | °C
As of 4:51 PM on Monday 26 Jan 2015 (Local Time) from KHTS Reporting Station
Overcast Overcast  
Wind Chill: 20°   Ceiling: 1400
Heat Index: 27°   Visibility: 10mi
Dew Point: 22°   Wind: 6mph
Humidity: 81%   Direction: NA
Pressure: 29.86"   Gusts: NA
Location:  38.32°N, 82.45°W
Report Text: KHTS 262151Z VRB05KT 10SM OVC014 M03/M06 A2986 RMK AO2 SLP117 T10281056
Loading
Personal Weather Stations






























Interactive Weather Map New forecast layout! Learn more

10-Day Weather Forecast

Advertisements
Track Severe Weather on mobile